Time;durP1;ratioP1;P1;durP2;ratioP2;P2;SDS_P1;SDS_P2;PMS_P1;PMS_P2;Temp;Humidity;BMP_temperature;BMP_pressure;BME280_temperature;BME280_humidity;BME280_pressure;Samples;Min_cycle;Max_cycle;Signal;HPM_P1;HPM_P2
2022/11/15 00:00:58;;;;;;;49.97;27.42;;;9.50;78.60;;;;;;2344918;57;21046;-57
2022/11/15 00:03:27;;;;;;;51.58;27.05;;;9.40;78.60;;;;;;2344902;57;21144;-55
2022/11/15 00:05:54;;;;;;;53.45;26.55;;;9.50;78.80;;;;;;2345736;57;21520;-55
2022/11/15 00:08:21;;;;;;;51.00;27.30;;;9.40;78.60;;;;;;2344459;57;21038;-60
2022/11/15 00:10:56;;;;;;;50.17;27.33;;;9.40;78.60;;;;;;2345423;57;21105;-56
2022/11/15 00:13:23;;;;;;;48.80;26.42;;;9.40;78.70;;;;;;2345506;57;21537;-58
2022/11/15 00:15:51;;;;;;;49.08;26.48;;;9.40;78.70;;;;;;2345200;57;21521;-60
2022/11/15 00:18:18;;;;;;;48.70;26.10;;;9.40;78.70;;;;;;2345331;57;21125;-62
2022/11/15 00:20:45;;;;;;;46.83;25.58;;;9.40;78.70;;;;;;2345633;57;21557;-62
2022/11/15 00:23:13;;;;;;;48.00;27.05;;;9.40;78.70;;;;;;2344915;57;21624;-60
2022/11/15 00:25:40;;;;;;;47.28;24.87;;;9.40;78.70;;;;;;2345503;57;21058;-59
2022/11/15 00:28:07;;;;;;;52.30;28.87;;;9.40;78.80;;;;;;2345106;57;21510;-59
2022/11/15 00:30:35;;;;;;;52.95;28.42;;;9.40;78.50;;;;;;2345316;57;21050;-60
2022/11/15 00:33:04;;;;;;;50.12;26.77;;;9.40;78.50;;;;;;2345334;57;21066;-58
2022/11/15 00:35:33;;;;;;;47.62;25.45;;;9.40;78.50;;;;;;2345074;57;21604;-59
2022/11/15 00:38:01;;;;;;;50.25;26.30;;;9.40;78.50;;;;;;2345155;57;21110;-61
2022/11/15 00:40:28;;;;;;;45.38;24.45;;;9.30;78.40;;;;;;2345243;57;21042;-56
2022/11/15 00:42:55;;;;;;;46.92;25.33;;;9.40;78.60;;;;;;2345555;57;21528;-54
2022/11/15 00:45:23;;;;;;;50.75;27.23;;;9.30;78.60;;;;;;2345599;57;21498;-57
2022/11/15 00:47:50;;;;;;;55.20;28.35;;;9.30;78.60;;;;;;2345702;57;21165;-59
2022/11/15 00:50:18;;;;;;;51.13;26.80;;;9.30;78.40;;;;;;2345279;57;21022;-63
2022/11/15 00:52:46;;;;;;;48.08;26.33;;;9.40;78.40;;;;;;2344803;57;21046;-63
2022/11/15 00:55:15;;;;;;;50.90;26.75;;;9.30;78.40;;;;;;2345229;57;21054;-63
2022/11/15 00:57:42;;;;;;;50.30;28.08;;;9.30;78.30;;;;;;2345544;57;21113;-63
2022/11/15 01:00:11;;;;;;;49.75;26.73;;;9.30;78.40;;;;;;2345641;57;21088;-63
2022/11/15 01:02:39;;;;;;;51.25;26.65;;;9.30;78.40;;;;;;2345139;57;21600;-63
2022/11/15 01:05:08;;;;;;;53.33;28.38;;;9.30;78.40;;;;;;2345446;57;21050;-63
2022/11/15 01:07:35;;;;;;;51.20;26.67;;;9.30;78.30;;;;;;2344812;57;21698;-63
2022/11/15 01:10:03;;;;;;;48.47;25.62;;;9.20;78.40;;;;;;2345669;57;21494;-63
2022/11/15 01:12:30;;;;;;;45.17;26.23;;;9.20;78.40;;;;;;2344790;57;21667;-63
2022/11/15 01:14:57;;;;;;;44.47;23.20;;;9.20;78.50;;;;;;2345766;57;21032;-63
2022/11/15 01:17:25;;;;;;;46.65;25.92;;;9.20;78.50;;;;;;2345446;57;21534;-63
2022/11/15 01:19:52;;;;;;;47.62;26.02;;;9.30;78.40;;;;;;2345751;57;21045;-63
2022/11/15 01:22:19;;;;;;;44.13;23.02;;;9.30;78.20;;;;;;2345450;57;21165;-63
2022/11/15 01:24:46;;;;;;;44.55;24.63;;;9.30;78.10;;;;;;2344804;57;21121;-63
2022/11/15 01:27:13;;;;;;;37.95;21.85;;;9.30;77.90;;;;;;2345390;57;21038;-64
2022/11/15 01:29:40;;;;;;;42.00;22.62;;;9.30;77.70;;;;;;2344879;57;21065;-63
2022/11/15 01:32:08;;;;;;;41.50;23.87;;;9.30;77.60;;;;;;2344681;57;21521;-63
2022/11/15 01:34:35;;;;;;;47.13;24.48;;;9.30;77.40;;;;;;2345816;57;21046;-63
2022/11/15 01:37:02;;;;;;;51.95;24.92;;;9.30;78.30;;;;;;2345226;57;21488;-63
2022/11/15 01:39:29;;;;;;;53.42;26.37;;;9.30;77.50;;;;;;2345222;57;21129;-64
2022/11/15 01:41:57;;;;;;;42.20;24.08;;;9.30;77.70;;;;;;2344591;57;21037;-63
2022/11/15 01:44:42;;;;;;;46.55;25.23;;;9.30;77.70;;;;;;2345441;57;21638;-63
2022/11/15 01:47:13;;;;;;;47.55;25.48;;;9.30;77.80;;;;;;2345479;57;21038;-66
2022/11/15 01:49:45;;;;;;;45.85;25.58;;;9.30;77.50;;;;;;2345671;57;21085;-63
2022/11/15 01:52:17;;;;;;;43.03;24.25;;;9.30;77.30;;;;;;2344822;57;21144;-64
2022/11/15 01:54:45;;;;;;;43.90;23.83;;;9.20;77.30;;;;;;2345613;57;21046;-63
2022/11/15 01:57:13;;;;;;;42.92;23.77;;;9.30;77.30;;;;;;2345129;57;21573;-63
2022/11/15 01:59:44;;;;;;;44.22;24.15;;;9.20;77.20;;;;;;2344993;57;21126;-63
2022/11/15 02:02:11;;;;;;;43.03;24.20;;;9.20;77.10;;;;;;2345533;57;21034;-63
2022/11/15 02:04:42;;;;;;;45.85;24.45;;;9.20;77.00;;;;;;2344770;57;21042;-63
2022/11/15 02:07:12;;;;;;;44.20;23.12;;;9.20;76.90;;;;;;2345569;57;21111;-63
2022/11/15 02:09:40;;;;;;;40.12;22.13;;;9.20;76.60;;;;;;2345677;57;21118;-63
2022/11/15 02:12:09;;;;;;;43.08;23.02;;;9.20;76.60;;;;;;2344724;57;22061;-63
2022/11/15 02:14:38;;;;;;;42.60;23.17;;;9.20;76.40;;;;;;2345220;57;21501;-63
2022/11/15 02:17:40;;;;;;;44.72;23.65;;;9.20;76.20;;;;;;2344488;57;21105;-64
2022/11/15 02:20:36;;;;;;;44.35;23.58;;;9.20;76.20;;;;;;2339405;57;21046;-64
2022/11/15 02:23:38;;;;;;;38.35;22.60;;;9.10;76.00;;;;;;2345032;57;21773;-64
2022/11/15 02:26:27;;;;;;;40.38;22.17;;;9.10;76.10;;;;;;2324145;57;21113;-64
2022/11/15 02:29:01;;;;;;;35.08;19.85;;;9.10;75.90;;;;;;2555298;53;21578;-62
2022/11/15 02:31:36;;;;;;;42.28;23.12;;;9.10;75.80;;;;;;2357777;57;21642;-62
2022/11/15 02:34:10;;;;;;;43.63;24.77;;;9.00;75.70;;;;;;2357394;57;21587;-62
2022/11/15 02:36:44;;;;;;;41.30;21.98;;;9.00;75.60;;;;;;2357340;57;21480;-62
2022/11/15 02:39:15;;;;;;;;;;;9.00;75.60;;;;;;2360837;57;21611;-62
2022/11/15 02:41:48;;;;;;;42.42;22.98;;;9.10;75.80;;;;;;2357852;57;20130;-62
2022/11/15 02:44:21;;;;;;;41.17;21.87;;;9.00;75.10;;;;;;2358140;57;21516;-62
2022/11/15 02:49:37;;;;;;;40.08;21.45;;;9.10;75.60;;;;;;2356497;57;20090;-62
2022/11/15 02:52:05;;;;;;;43.25;23.50;;;9.00;75.20;;;;;;2356795;57;21610;-62
2022/11/15 02:54:33;;;;;;;41.00;21.92;;;8.90;75.80;;;;;;2358129;57;21062;-62
2022/11/15 02:57:04;;;;;;;37.38;21.23;;;8.80;76.10;;;;;;2356644;57;21085;-62
2022/11/15 02:59:49;;;;;;;39.95;22.00;;;8.80;76.10;;;;;;2357383;57;21492;-62
2022/11/15 03:02:28;;;;;;;45.28;24.52;;;8.80;76.20;;;;;;2358002;57;21053;-62
2022/11/15 03:04:58;;;;;;;39.85;22.20;;;8.80;76.10;;;;;;2358042;57;21104;-61
2022/11/15 03:07:30;;;;;;;43.03;23.42;;;8.80;76.00;;;;;;2357170;57;21096;-62
2022/11/15 03:10:06;;;;;;;42.33;21.87;;;8.80;76.00;;;;;;2356563;57;21065;-61
2022/11/15 03:12:41;;;;;;;46.47;24.40;;;8.70;76.00;;;;;;2357828;57;21654;-62
2022/11/15 03:15:16;;;;;;;48.83;22.75;;;8.70;75.90;;;;;;2357998;57;21501;-62
2022/11/15 03:17:49;;;;;;;38.10;21.20;;;8.70;76.10;;;;;;2358069;57;21587;-61
2022/11/15 03:20:18;;;;;;;40.70;23.10;;;8.70;76.30;;;;;;2357867;57;21101;-62
2022/11/15 03:22:48;;;;;;;42.70;21.75;;;8.70;76.30;;;;;;2357890;57;21089;-62
2022/11/15 03:25:20;;;;;;;48.58;26.70;;;8.70;76.50;;;;;;2357241;57;21030;-61
2022/11/15 03:27:51;;;;;;;39.15;21.73;;;8.60;76.50;;;;;;2357507;57;21030;-62
2022/11/15 03:30:19;;;;;;;40.65;22.52;;;8.60;76.70;;;;;;2357723;57;21547;-62
2022/11/15 03:32:50;;;;;;;41.67;21.65;;;8.60;76.80;;;;;;2357906;57;21053;-62
2022/11/15 03:35:21;;;;;;;37.42;21.27;;;8.60;76.70;;;;;;2357739;57;21049;-62
2022/11/15 03:37:52;;;;;;;39.20;21.23;;;8.60;76.60;;;;;;2358375;57;21639;-62
2022/11/15 03:40:25;;;;;;;44.47;23.65;;;8.60;76.50;;;;;;2357600;57;21636;-62
2022/11/15 03:43:00;;;;;;;43.83;23.25;;;8.50;76.60;;;;;;2357776;57;21085;-62
2022/11/15 03:45:32;;;;;;;38.15;22.00;;;8.50;76.60;;;;;;2357489;57;21583;-62
2022/11/15 03:48:02;;;;;;;39.15;23.25;;;8.50;76.60;;;;;;2358304;57;21630;-62
2022/11/15 03:50:30;;;;;;;43.72;23.85;;;8.50;76.60;;;;;;2356992;57;21200;-61
2022/11/15 03:52:58;;;;;;;45.90;24.02;;;8.50;76.80;;;;;;2357738;57;21592;-62
2022/11/15 03:55:26;;;;;;;44.88;24.15;;;8.40;76.90;;;;;;2358196;57;21569;-62
2022/11/15 03:57:55;;;;;;;46.42;24.87;;;8.40;77.20;;;;;;2357371;57;21120;-62
2022/11/15 04:00:23;;;;;;;45.60;24.23;;;8.40;77.40;;;;;;2357886;57;21104;-61
2022/11/15 04:02:50;;;;;;;43.70;24.50;;;8.40;77.40;;;;;;2357818;57;21109;-64
2022/11/15 04:05:18;;;;;;;49.30;25.17;;;8.40;77.50;;;;;;2358625;57;21105;-64
2022/11/15 04:07:46;;;;;;;43.10;24.08;;;8.40;77.60;;;;;;2359227;57;21077;-64
2022/11/15 04:10:13;;;;;;;42.70;22.85;;;8.40;77.80;;;;;;2359131;57;21081;-64
2022/11/15 04:12:43;;;;;;;38.40;21.23;;;8.40;77.80;;;;;;2358419;57;21112;-64
2022/11/15 04:15:14;;;;;;;46.88;23.80;;;8.40;77.60;;;;;;2359268;57;21042;-64
2022/11/15 04:17:44;;;;;;;42.83;22.85;;;8.40;77.40;;;;;;2358986;57;21077;-64
2022/11/15 04:25:50;;;;;;;35.90;19.80;;;8.40;76.70;;;;;;2360080;57;21049;-64
2022/11/15 04:28:18;;;;;;;36.67;21.10;;;8.40;76.70;;;;;;2359157;57;21068;-66
2022/11/15 04:30:45;;;;;;;39.70;22.15;;;8.40;76.70;;;;;;2358703;57;21049;-64
2022/11/15 04:33:13;;;;;;;44.60;23.85;;;8.40;76.70;;;;;;2359324;57;21065;-64
2022/11/15 04:35:41;;;;;;;34.75;20.30;;;8.30;76.80;;;;;;2359179;57;21139;-65
2022/11/15 04:38:11;;;;;;;39.47;20.17;;;8.30;77.00;;;;;;2359440;57;21051;-64
2022/11/15 04:40:39;;;;;;;39.30;19.37;;;8.30;77.10;;;;;;2359500;57;21504;-64
2022/11/15 04:43:06;;;;;;;36.25;20.80;;;8.30;77.00;;;;;;2359284;57;21041;-64
2022/11/15 04:45:33;;;;;;;38.47;22.20;;;8.30;76.80;;;;;;2359536;57;21053;-64
2022/11/15 04:48:01;;;;;;;36.92;20.60;;;8.30;77.60;;;;;;2359017;57;21133;-64
2022/11/15 04:50:30;;;;;;;31.87;17.92;;;8.30;76.90;;;;;;2358627;57;21097;-64
2022/11/15 04:52:57;;;;;;;39.33;20.27;;;8.30;77.00;;;;;;2358031;57;22170;-64
2022/11/15 04:55:24;;;;;;;35.60;20.37;;;8.40;76.90;;;;;;2358858;57;21053;-64
2022/11/15 04:57:59;;;;;;;38.85;21.55;;;8.30;76.70;;;;;;2359510;57;21033;-64
2022/11/15 05:00:28;;;;;;;38.75;19.73;;;8.30;76.70;;;;;;2359690;57;21044;-64
2022/11/15 05:05:41;;;;;;;41.53;21.40;;;8.30;77.10;;;;;;2358392;57;21088;-66
2022/11/15 05:08:09;;;;;;;44.20;22.98;;;8.40;77.50;;;;;;2357746;57;21041;-66
2022/11/15 05:10:36;;;;;;;39.47;22.15;;;8.40;77.90;;;;;;2359011;57;21057;-65
2022/11/15 05:13:03;;;;;;;41.53;22.17;;;8.30;78.10;;;;;;2359441;57;21124;-64
2022/11/15 05:15:31;;;;;;;37.90;22.73;;;8.40;78.20;;;;;;2358496;57;21030;-63
2022/11/15 05:18:01;;;;;;;38.83;21.37;;;8.40;78.30;;;;;;2359238;57;21045;-63
2022/11/15 05:20:29;;;;;;;36.90;20.10;;;8.40;78.30;;;;;;2359445;57;21049;-65
2022/11/15 05:22:56;;;;;;;34.55;20.77;;;8.40;78.50;;;;;;2358302;57;21108;-66
2022/11/15 05:25:24;;;;;;;35.63;20.33;;;8.50;78.90;;;;;;2359220;57;21049;-66
2022/11/15 05:27:51;;;;;;;37.63;21.65;;;8.50;79.20;;;;;;2359088;57;21053;-63
2022/11/15 05:30:19;;;;;;;40.65;22.73;;;8.60;79.40;;;;;;2359087;57;21092;-65
2022/11/15 05:32:47;;;;;;;43.45;24.15;;;8.60;79.40;;;;;;2358442;57;21056;-66
2022/11/15 05:35:21;;;;;;;41.83;22.77;;;8.70;79.60;;;;;;2358089;57;21631;-65
2022/11/15 05:37:49;;;;;;;37.60;21.73;;;8.70;79.60;;;;;;2356981;57;21112;-66
2022/11/15 05:40:18;;;;;;;40.20;21.60;;;8.70;79.80;;;;;;2357372;57;21061;-66
2022/11/15 05:42:46;;;;;;;32.95;19.08;;;8.70;79.80;;;;;;2357877;57;21112;-66
2022/11/15 05:45:13;;;;;;;38.60;21.27;;;8.80;80.00;;;;;;2358695;57;21116;-66
2022/11/15 05:47:42;;;;;;;36.38;21.17;;;8.80;79.90;;;;;;2358853;57;21037;-66
2022/11/15 05:50:14;;;;;;;36.28;21.52;;;8.80;79.70;;;;;;2355936;57;21535;-63
2022/11/15 05:52:42;;;;;;;35.03;20.25;;;8.80;79.60;;;;;;2357166;57;21061;-61
2022/11/15 05:55:10;;;;;;;38.08;21.85;;;8.90;79.60;;;;;;2356258;57;21668;-63
2022/11/15 05:57:37;;;;;;;40.90;22.37;;;8.90;79.50;;;;;;2358299;57;21586;-63
2022/11/15 06:00:09;;;;;;;38.17;21.12;;;8.90;79.50;;;;;;2357699;57;21029;-62
2022/11/15 06:02:36;;;;;;;41.97;22.48;;;8.90;79.50;;;;;;2357941;57;21121;-61
2022/11/15 06:05:04;;;;;;;38.40;20.55;;;9.00;79.50;;;;;;2357253;57;21053;-61
2022/11/15 06:07:32;;;;;;;43.35;21.83;;;9.00;79.50;;;;;;2357354;57;21474;-62
2022/11/15 06:09:59;;;;;;;34.90;20.25;;;9.10;79.70;;;;;;2357592;57;21556;-63
2022/11/15 06:12:26;;;;;;;41.03;22.15;;;9.10;79.40;;;;;;2357822;57;21136;-64
2022/11/15 06:14:53;;;;;;;39.38;21.65;;;9.10;79.30;;;;;;2358127;57;21061;-63
2022/11/15 06:17:20;;;;;;;37.30;20.27;;;9.10;79.40;;;;;;2358351;57;21050;-62
2022/11/15 06:19:47;;;;;;;38.78;21.48;;;9.10;79.30;;;;;;2357819;57;21092;-62
2022/11/15 06:22:15;;;;;;;40.12;21.73;;;9.10;79.30;;;;;;2355342;57;21045;-63
2022/11/15 06:24:43;;;;;;;37.85;21.90;;;9.10;79.20;;;;;;2357072;57;21077;-65
2022/11/15 06:27:11;;;;;;;32.92;20.52;;;9.10;79.60;;;;;;2356797;57;21714;-65
2022/11/15 06:29:38;;;;;;;35.28;20.17;;;9.20;80.70;;;;;;2357662;57;21108;-64
2022/11/15 06:32:06;;;;;;;33.55;20.88;;;9.30;81.30;;;;;;2357748;57;21113;-64
2022/11/15 06:34:33;;;;;;;32.38;18.77;;;9.40;81.60;;;;;;2358025;57;21053;-64
2022/11/15 06:37:00;;;;;;;32.17;18.95;;;9.50;81.00;;;;;;2356767;57;21101;-63
2022/11/15 06:39:27;;;;;;;32.85;19.10;;;9.50;79.90;;;;;;2357213;57;21057;-62
2022/11/15 06:41:54;;;;;;;32.78;18.15;;;9.50;79.40;;;;;;2357660;57;21551;-61
2022/11/15 06:44:22;;;;;;;34.65;20.12;;;9.50;78.50;;;;;;2358197;57;21041;-64
2022/11/15 06:46:49;;;;;;;40.00;20.00;;;9.50;78.90;;;;;;2358109;57;21560;-62
2022/11/15 06:49:16;;;;;;;31.67;20.20;;;9.50;77.80;;;;;;2358004;57;21057;-62
2022/11/15 06:51:44;;;;;;;30.98;18.25;;;9.60;77.70;;;;;;2357643;57;21112;-62
2022/11/15 06:54:11;;;;;;;36.47;20.52;;;9.60;77.60;;;;;;2357351;57;21041;-62
2022/11/15 06:56:38;;;;;;;36.85;19.05;;;9.60;77.50;;;;;;2358240;57;21029;-62
2022/11/15 06:59:05;;;;;;;32.80;19.20;;;9.60;77.40;;;;;;2357620;57;21115;-62
2022/11/15 07:01:32;;;;;;;34.03;20.62;;;9.60;78.30;;;;;;2357987;57;21578;-62
2022/11/15 07:03:59;;;;;;;34.83;19.67;;;9.50;77.50;;;;;;2358338;57;21042;-62
2022/11/15 07:06:27;;;;;;;35.67;20.12;;;9.50;77.50;;;;;;2357759;57;21599;-62
2022/11/15 07:08:54;;;;;;;36.55;20.80;;;9.50;77.50;;;;;;2358157;57;21580;-62
2022/11/15 07:11:21;;;;;;;31.02;18.40;;;9.60;77.60;;;;;;2356914;57;21096;-62
2022/11/15 07:13:48;;;;;;;31.37;18.65;;;9.50;77.60;;;;;;2357844;57;21116;-64
2022/11/15 07:16:15;;;;;;;33.42;19.62;;;9.60;77.70;;;;;;2357819;57;21038;-62
2022/11/15 07:18:43;;;;;;;30.25;17.87;;;9.60;77.60;;;;;;2357701;57;21056;-62
2022/11/15 07:21:11;;;;;;;32.78;19.17;;;9.60;77.60;;;;;;2355895;57;21073;-62
2022/11/15 07:23:39;;;;;;;33.35;19.27;;;9.60;77.50;;;;;;2358091;57;21560;-62
2022/11/15 07:26:07;;;;;;;32.85;19.58;;;9.60;77.50;;;;;;2357943;57;21587;-62
2022/11/15 07:28:35;;;;;;;34.80;18.73;;;9.70;77.60;;;;;;2357859;57;21132;-62
2022/11/15 07:33:38;;;;;;;30.35;17.20;;;9.70;77.60;;;;;;2273403;59;22207;-62
2022/11/15 07:36:08;;;;;;;33.78;19.05;;;9.70;77.70;;;;;;2291343;58;21039;-64
2022/11/15 07:38:36;;;;;;;32.70;19.20;;;9.70;77.60;;;;;;2292945;58;21129;-64
2022/11/15 07:41:05;;;;;;;32.03;18.42;;;9.70;77.50;;;;;;2317556;58;21543;-62
2022/11/15 07:43:33;;;;;;;35.45;19.20;;;9.70;77.60;;;;;;2317402;58;21057;-62
2022/11/15 07:46:05;;;;;;;33.40;19.05;;;9.80;77.70;;;;;;2317365;58;21123;-62
2022/11/15 07:48:33;;;;;;;33.97;18.48;;;9.80;78.10;;;;;;2317211;58;21060;-62
2022/11/15 07:51:00;;;;;;;31.15;18.37;;;9.80;77.70;;;;;;2316300;58;21048;-60
2022/11/15 07:53:27;;;;;;;30.98;18.35;;;9.80;77.60;;;;;;2315550;58;21053;-60
2022/11/15 07:55:54;;;;;;;36.22;19.42;;;9.80;77.50;;;;;;2316346;58;21535;-60
2022/11/15 07:58:21;;;;;;;32.35;17.95;;;9.90;77.60;;;;;;2315573;58;21107;-58
2022/11/15 08:00:49;;;;;;;29.67;18.08;;;9.90;77.60;;;;;;2317355;58;21542;-57
2022/11/15 08:03:17;;;;;;;30.65;17.73;;;9.90;77.50;;;;;;2316621;58;21041;-60
2022/11/15 08:05:50;;;;;;;30.70;18.60;;;9.90;77.50;;;;;;2317375;58;21175;-60
2022/11/15 08:08:17;;;;;;;31.20;17.80;;;9.90;77.40;;;;;;2317328;58;21613;-60
2022/11/15 08:10:44;;;;;;;28.62;17.67;;;10.00;77.50;;;;;;2316591;58;21120;-59
2022/11/15 08:13:12;;;;;;;27.70;17.05;;;10.00;77.50;;;;;;2316461;58;21575;-60
2022/11/15 08:15:40;;;;;;;30.75;18.15;;;10.00;77.50;;;;;;2317701;58;21535;-60
2022/11/15 08:18:11;;;;;;;29.92;18.27;;;10.00;77.40;;;;;;2316519;58;22313;-60
2022/11/15 08:20:39;;;;;;;31.60;18.67;;;10.00;77.30;;;;;;2317347;58;21124;-60
2022/11/15 08:25:44;;;;;;;27.67;17.42;;;10.10;77.30;;;;;;2354469;57;22544;-59
2022/11/15 08:28:12;;;;;;;28.70;17.40;;;10.10;77.20;;;;;;2346309;57;21508;-62
2022/11/15 08:30:42;;;;;;;27.62;16.87;;;10.10;77.10;;;;;;2344667;57;21105;-62
2022/11/15 08:33:12;;;;;;;29.83;17.95;;;10.10;77.20;;;;;;2344479;57;21663;-62
2022/11/15 08:35:39;;;;;;;30.25;18.27;;;10.10;77.10;;;;;;2345371;57;21038;-61
2022/11/15 08:38:06;;;;;;;27.87;16.30;;;10.10;77.20;;;;;;2345204;57;21702;-62
2022/11/15 08:40:34;;;;;;;27.20;15.50;;;10.10;77.10;;;;;;2344361;57;21038;-62
2022/11/15 08:43:02;;;;;;;26.42;16.37;;;10.10;77.10;;;;;;2342793;57;21109;-60
2022/11/15 08:45:29;;;;;;;31.20;17.85;;;10.20;77.20;;;;;;2345899;57;21532;-61
2022/11/15 08:47:57;;;;;;;27.95;16.30;;;10.20;77.10;;;;;;2346069;57;21497;-60
2022/11/15 08:50:24;;;;;;;28.27;16.55;;;10.20;77.10;;;;;;2345475;57;21062;-59
2022/11/15 08:52:51;;;;;;;28.38;16.90;;;10.20;77.10;;;;;;2344763;57;21086;-60
2022/11/15 08:55:19;;;;;;;28.50;17.30;;;10.20;77.10;;;;;;2344595;57;21054;-58
2022/11/15 08:57:46;;;;;;;33.42;16.70;;;10.20;77.00;;;;;;2345276;57;21050;-60
2022/11/15 09:00:16;;;;;;;31.58;16.48;;;10.30;77.00;;;;;;2346443;57;21050;-59
2022/11/15 09:02:44;;;;;;;25.30;15.40;;;10.30;77.10;;;;;;2344736;57;21058;-60
2022/11/15 09:05:12;;;;;;;26.67;16.30;;;10.30;77.10;;;;;;2345222;57;21556;-60
2022/11/15 09:07:39;;;;;;;30.52;17.30;;;10.30;77.10;;;;;;2345694;57;21061;-60
2022/11/15 09:10:08;;;;;;;23.65;15.15;;;10.30;77.00;;;;;;2344905;57;21030;-59
2022/11/15 09:12:35;;;;;;;27.45;15.77;;;10.30;77.10;;;;;;2344994;57;21112;-59
2022/11/15 09:17:39;;;;;;;27.48;15.95;;;10.40;77.20;;;;;;2355483;57;23155;-61
2022/11/15 09:20:09;;;;;;;25.98;14.98;;;10.40;77.10;;;;;;2345731;57;21038;-62
2022/11/15 09:22:38;;;;;;;25.50;14.87;;;10.50;77.20;;;;;;2345035;57;21038;-60
2022/11/15 09:25:08;;;;;;;27.50;15.43;;;10.50;77.30;;;;;;2345204;57;21774;-61
2022/11/15 09:27:35;;;;;;;25.67;14.82;;;10.50;77.30;;;;;;2345675;57;21529;-62
2022/11/15 09:30:03;;;;;;;24.77;15.18;;;10.50;77.20;;;;;;2344951;57;21065;-61
2022/11/15 09:32:30;;;;;;;24.48;15.10;;;10.60;77.20;;;;;;2345308;57;21604;-62
2022/11/15 09:34:58;;;;;;;27.58;14.80;;;10.60;77.20;;;;;;2345481;57;21118;-62
2022/11/15 09:37:25;;;;;;;23.77;14.50;;;10.70;77.30;;;;;;2345862;57;21061;-62
2022/11/15 09:39:52;;;;;;;23.17;14.13;;;10.70;77.30;;;;;;2345991;57;21783;-61
2022/11/15 09:42:35;;;;;;;25.15;15.15;;;10.70;77.20;;;;;;2345362;57;21026;-61
2022/11/15 09:45:17;;;;;;;24.48;14.57;;;10.70;77.20;;;;;;2345213;57;21683;-61
2022/11/15 09:48:07;;;;;;;25.58;15.18;;;10.80;77.10;;;;;;2345814;57;21034;-62
2022/11/15 09:50:40;;;;;;;23.45;14.07;;;10.80;77.00;;;;;;2345503;57;21494;-60
2022/11/15 09:53:11;;;;;;;26.62;15.80;;;10.90;77.00;;;;;;2345368;57;21124;-60
2022/11/15 09:55:48;;;;;;;22.23;13.93;;;10.90;77.10;;;;;;2345301;57;21093;-60
2022/11/15 10:00:53;;;;;;;25.08;14.65;;;10.90;77.10;;;;;;2354029;57;23622;-59
2022/11/15 10:03:27;;;;;;;23.98;14.15;;;11.00;77.10;;;;;;2345466;57;21512;-59
2022/11/15 10:05:58;;;;;;;25.02;14.52;;;11.00;77.10;;;;;;2346524;57;21106;-62
2022/11/15 10:08:35;;;;;;;23.50;14.32;;;11.00;77.10;;;;;;2347549;57;21557;-60
2022/11/15 10:11:06;;;;;;;24.37;14.07;;;11.10;77.20;;;;;;2344920;57;21575;-62
2022/11/15 10:16:26;;;;;;;24.20;14.70;;;11.10;77.10;;;;;;2354337;57;22110;-57
2022/11/15 10:19:02;;;;;;;22.50;14.23;;;11.20;77.20;;;;;;2344927;57;21061;-62
2022/11/15 10:21:39;;;;;;;22.62;14.23;;;11.20;77.00;;;;;;2343940;57;22160;-61
2022/11/15 10:24:12;;;;;;;20.62;13.15;;;11.20;77.00;;;;;;2344761;57;21504;-62
2022/11/15 10:26:45;;;;;;;26.20;14.00;;;11.20;77.00;;;;;;2343962;57;21079;-62
2022/11/15 10:31:55;;;;;;;24.23;14.38;;;11.30;76.90;;;;;;2354711;57;23115;-59
2022/11/15 10:34:24;;;;;;;20.55;14.00;;;11.30;76.90;;;;;;2346912;57;21064;-59
2022/11/15 10:36:56;;;;;;;21.67;13.18;;;11.40;77.10;;;;;;2346042;57;21626;-59
2022/11/15 10:39:24;;;;;;;22.92;12.95;;;11.40;77.20;;;;;;2346424;57;21521;-59
2022/11/15 10:41:51;;;;;;;22.02;13.82;;;11.40;77.20;;;;;;2344617;57;21083;-59
2022/11/15 10:44:24;;;;;;;20.67;12.37;;;11.50;77.20;;;;;;2343322;57;21077;-59
2022/11/15 10:47:38;;;;;;;23.75;13.13;;;11.50;77.20;;;;;;2343684;57;21057;-59
2022/11/15 10:50:26;;;;;;;23.87;13.10;;;11.60;77.10;;;;;;2345328;57;21034;-61
2022/11/15 10:52:54;;;;;;;23.38;14.40;;;11.60;76.90;;;;;;2345731;57;21565;-61
2022/11/15 10:55:26;;;;;;;24.30;14.23;;;11.70;76.80;;;;;;2346080;57;21046;-62
2022/11/15 10:57:55;;;;;;;22.40;13.43;;;11.60;76.90;;;;;;2345778;57;21058;-60
2022/11/15 11:00:34;;;;;;;22.75;13.00;;;11.70;76.90;;;;;;2344588;57;21856;-59
2022/11/15 11:03:03;;;;;;;21.73;12.65;;;11.70;77.00;;;;;;2345021;57;22092;-60
2022/11/15 11:05:33;;;;;;;20.85;12.63;;;11.80;76.90;;;;;;2345042;57;21647;-60
2022/11/15 11:08:03;;;;;;;21.08;13.43;;;11.80;76.80;;;;;;2343552;57;21038;-59
2022/11/15 11:10:33;;;;;;;23.80;12.50;;;11.80;76.80;;;;;;2344532;57;21777;-61
2022/11/15 11:13:14;;;;;;;21.75;13.55;;;11.80;76.70;;;;;;2345022;57;21950;-61
2022/11/15 11:15:46;;;;;;;21.60;13.38;;;11.80;76.70;;;;;;2345407;57;21523;-61
2022/11/15 11:18:19;;;;;;;21.40;13.32;;;11.80;76.60;;;;;;2344768;57;21161;-61
2022/11/15 11:20:50;;;;;;;;;;;11.90;76.70;;;;;;2348711;57;21054;-62
2022/11/15 11:23:32;;;;;;;24.23;14.27;;;12.00;76.60;;;;;;2344945;57;20118;-62
2022/11/15 11:26:12;;;;;;;20.77;12.35;;;11.90;76.30;;;;;;2344699;57;21662;-63
2022/11/15 11:28:48;;;;;;;22.73;12.50;;;12.00;76.60;;;;;;2345524;57;21116;-61
2022/11/15 11:31:26;;;;;;;20.40;12.93;;;12.00;76.70;;;;;;2344755;57;21580;-62
2022/11/15 11:34:04;;;;;;;22.83;13.43;;;12.00;76.80;;;;;;2344837;57;21569;-61
2022/11/15 11:36:40;;;;;;;21.58;12.68;;;12.00;76.80;;;;;;2345144;57;21053;-62
2022/11/15 11:39:23;;;;;;;21.80;13.20;;;12.10;76.90;;;;;;2345131;57;21069;-61
2022/11/15 11:41:59;;;;;;;20.25;12.75;;;12.10;76.90;;;;;;2344563;57;21557;-59
2022/11/15 11:44:34;;;;;;;20.40;12.75;;;12.10;76.80;;;;;;2344311;57;21108;-61
2022/11/15 11:47:07;;;;;;;20.50;11.55;;;12.20;77.60;;;;;;2344498;57;21102;-61
2022/11/15 11:49:43;;;;;;;18.30;12.15;;;12.20;76.70;;;;;;2344375;57;21910;-62
2022/11/15 11:52:13;;;;;;;18.50;11.85;;;12.30;76.80;;;;;;2343748;57;21058;-64
2022/11/15 11:54:52;;;;;;;22.98;12.90;;;12.30;76.80;;;;;;2344432;57;21592;-62
2022/11/15 11:57:29;;;;;;;21.42;11.50;;;12.40;76.70;;;;;;2344215;57;21042;-63
2022/11/15 12:00:04;;;;;;;18.98;11.70;;;12.40;76.60;;;;;;2344792;57;21090;-62
2022/11/15 12:02:36;;;;;;;19.02;11.80;;;12.40;76.60;;;;;;2344678;57;21030;-61
2022/11/15 12:05:13;;;;;;;20.00;11.83;;;12.40;76.50;;;;;;2345386;57;21553;-61
2022/11/15 12:10:22;;;;;;;18.40;12.07;;;12.50;76.50;;;;;;2333815;57;22111;-59
2022/11/15 12:12:57;;;;;;;16.75;11.27;;;12.60;76.60;;;;;;2347253;57;21100;-62
2022/11/15 12:15:27;;;;;;;16.30;10.52;;;12.50;76.50;;;;;;2347001;57;21113;-61
2022/11/15 12:17:57;;;;;;;16.98;10.52;;;12.60;76.40;;;;;;2344807;57;21509;-59
2022/11/15 12:20:27;;;;;;;17.35;10.73;;;12.60;76.30;;;;;;2345731;57;21030;-59
2022/11/15 12:22:58;;;;;;;16.98;10.48;;;12.70;76.20;;;;;;2346513;57;21698;-58
2022/11/15 12:25:31;;;;;;;15.35;10.40;;;12.70;76.10;;;;;;2347281;57;21567;-60
2022/11/15 12:28:03;;;;;;;17.65;10.00;;;12.70;76.00;;;;;;2347515;57;21105;-60
2022/11/15 12:30:49;;;;;;;17.60;11.55;;;12.80;76.00;;;;;;2347487;57;21042;-60
2022/11/15 12:33:32;;;;;;;16.80;11.27;;;12.80;76.00;;;;;;2346713;57;21133;-62
2022/11/15 12:36:03;;;;;;;16.97;10.53;;;12.80;75.80;;;;;;2343602;57;21108;-59
2022/11/15 12:38:53;;;;;;;20.58;10.80;;;12.80;75.90;;;;;;2346248;57;21129;-60
2022/11/15 12:41:22;;;;;;;18.73;10.75;;;12.80;76.20;;;;;;2344965;57;21046;-61
2022/11/15 12:43:50;;;;;;;18.35;10.70;;;12.90;76.10;;;;;;2343893;57;21623;-63
2022/11/15 12:46:26;;;;;;;17.95;10.60;;;12.90;76.40;;;;;;2345780;57;21651;-63
2022/11/15 12:48:56;;;;;;;16.77;11.10;;;12.90;76.40;;;;;;2347043;57;21093;-61
2022/11/15 12:55:30;;;;;;;18.83;10.10;;;13.00;76.20;;;;;;2355436;57;22549;-59
2022/11/15 12:58:27;;;;;;;14.40;9.80;;;13.10;75.90;;;;;;2346981;57;21053;-60
2022/11/15 13:00:54;;;;;;;12.73;9.50;;;13.00;75.80;;;;;;2318952;58;22165;-61
2022/11/15 13:03:27;;;;;;;14.13;9.43;;;13.00;75.60;;;;;;2319943;58;21599;-60
2022/11/15 13:06:07;;;;;;;13.68;9.70;;;13.00;75.60;;;;;;2320495;58;21127;-58
2022/11/15 13:11:45;;;;;;;16.83;9.48;;;13.10;75.60;;;;;;2354990;57;22144;-58
2022/11/15 13:14:44;;;;;;;15.80;10.00;;;13.10;75.50;;;;;;2347708;57;21057;-59
2022/11/15 13:20:26;;;;;;;13.93;9.13;;;13.10;75.40;;;;;;2334824;57;22103;-57
2022/11/15 13:23:01;;;;;;;15.40;10.32;;;13.10;75.40;;;;;;2347737;57;21049;-58
2022/11/15 13:26:07;;;;;;;14.82;9.15;;;13.10;75.40;;;;;;2347298;57;21608;-60
2022/11/15 13:28:39;;;;;;;14.18;8.77;;;13.10;75.50;;;;;;2347483;57;21053;-60
2022/11/15 13:31:28;;;;;;;14.52;9.23;;;13.20;75.40;;;;;;2347298;57;21497;-59